map of UGN home
UGN - Airport
Location
City:  Chicago/Waukegan, Illinois, United States
Name:Waukegan National Airport
ICAO:KUGN
IATA:UGN
FAA LID:UGN

Details
Type:Airport (Airfield)
Use:Public/Civil, International (customs landing rights)
Latitude:4225'20"N (42.422149)
Longitude:8752'05"W (-87.867918)
Datum:WGS 1984
Elevation:728 ft (222 m)
Variation:3.82W (WMM2015v2 magnetic declination)
-0.03 annual change
Runways:2
Longest:5999 × 150 ft (1828 × 45.5 m), paved

Time
Time Zone:UTC-6 (DST-5)
Local Time:

Weather
METAR:KUGN 041355Z 21016G27KT 10SM BKN070 OVC100 09/06 A2964 RMK AO2 PK WND 20027/1354 SLP041 T00940061

Related Locations
Nearby:
Farthest:YAUG: 11077 mi / 17827 km
Augusta [Augusta Airport], WA, AU

Find:

   beyond  
but within

Other Information
Maps:
NOTAMs:
Links:
Sources:

  
  • flag of United States
  • flag of Illinois
  

Airport Diagram

Airport diagram for UGN

Airport diagram PDF from FAA

Sectional Chart

Flight Planning
at skyvector.com

Satellite Image

Google Maps Satellite view

 

Copyright © 2004-2019 Karl L. Swartz. All rights reserved.
The Great Circle Mapper name and logo are trademarks of the Great Circle Mapper.
All other trademarks mentioned herein belong to their respective owners.
Please see credits for attibutions and further copyright information.

  Follow gcmap on Facebook Follow gcmap on Twitter GCmap on LinkedIn

hCard Microformat

Geo Microformat